createdAt,value
2017-02-17T00:00:24.682Z,98.02
2017-02-17T00:01:05.309Z,97.92
2017-02-17T00:01:45.914Z,98.02
2017-02-17T00:02:26.513Z,98.02
2017-02-17T00:03:07.130Z,98.21
2017-02-17T00:03:47.711Z,98.02
2017-02-17T00:04:28.353Z,98.21
2017-02-17T00:05:09.005Z,98.21
2017-02-17T00:05:49.595Z,98.02
2017-02-17T00:06:30.161Z,98.21
2017-02-17T00:07:10.771Z,97.92
2017-02-17T00:07:51.420Z,98.21
2017-02-17T00:08:32.055Z,98.02
2017-02-17T00:09:12.684Z,98.21
2017-02-17T00:09:53.283Z,98.02
2017-02-17T00:10:33.909Z,98.21
2017-02-17T00:11:14.541Z,98.21
2017-02-17T00:11:55.186Z,97.83
2017-02-17T00:12:35.792Z,97.83
2017-02-17T00:13:16.395Z,98.21
2017-02-17T00:13:57.001Z,98.49
2017-02-17T00:14:37.623Z,98.49
2017-02-17T00:15:18.268Z,98.21
2017-02-17T00:15:58.905Z,98.39
2017-02-17T00:16:39.531Z,98.49
2017-02-17T00:17:20.132Z,98.21
2017-02-17T00:18:00.739Z,98.21
2017-02-17T00:18:41.433Z,98.21
2017-02-17T00:19:22.082Z,98.21
2017-02-17T00:20:02.659Z,98.3
2017-02-17T00:20:43.267Z,98.3
2017-02-17T00:21:23.887Z,98.21
2017-02-17T00:22:04.476Z,98.49
2017-02-17T00:22:45.072Z,98.39
2017-02-17T00:23:25.672Z,98.11
2017-02-17T00:24:06.291Z,98.3
2017-02-17T00:24:46.921Z,98.39
2017-02-17T00:25:27.639Z,98.11
2017-02-17T00:26:08.224Z,98.11
2017-02-17T00:26:48.871Z,98.21
2017-02-17T00:27:29.498Z,98.3
2017-02-17T00:28:10.105Z,98.68
2017-02-17T00:28:50.714Z,98.3
2017-02-17T00:29:31.348Z,98.3
2017-02-17T00:30:11.967Z,98.21
2017-02-17T00:30:52.666Z,98.21
2017-02-17T00:31:33.234Z,98.49
2017-02-17T00:32:13.805Z,98.77
2017-02-17T00:32:54.394Z,98.96
2017-02-17T00:33:35.022Z,98.68
2017-02-17T00:34:15.599Z,98.39
2017-02-17T00:34:56.260Z,98.49
2017-02-17T00:35:36.843Z,98.58
2017-02-17T00:36:17.465Z,98.49
2017-02-17T00:36:58.057Z,98.49
2017-02-17T00:37:38.673Z,98.49
2017-02-17T00:38:19.332Z,98.68
2017-02-17T00:38:59.998Z,98.39
2017-02-17T00:39:40.604Z,98.96
2017-02-17T00:40:21.208Z,99.06
2017-02-17T00:41:01.819Z,99.15
2017-02-17T00:41:42.443Z,98.87
2017-02-17T00:42:22.987Z,98.87
2017-02-17T00:43:03.580Z,98.87
2017-02-17T00:43:44.255Z,98.96
2017-02-17T00:44:24.906Z,98.96
2017-02-17T00:45:05.486Z,98.96
2017-02-17T00:45:46.124Z,98.87
2017-02-17T00:46:26.723Z,98.87
2017-02-17T00:47:07.371Z,98.77
2017-02-17T00:47:47.964Z,98.87
2017-02-17T00:48:28.569Z,98.77
2017-02-17T00:49:09.176Z,98.77
2017-02-17T00:49:49.808Z,98.96
2017-02-17T00:50:30.397Z,98.87
2017-02-17T00:51:11.008Z,99.06
2017-02-17T00:51:51.623Z,98.96
2017-02-17T00:52:32.255Z,98.87
2017-02-17T00:53:12.880Z,98.96
2017-02-17T00:53:53.546Z,99.06
2017-02-17T00:54:34.123Z,98.77
2017-02-17T00:55:15.680Z,98.77
2017-02-17T00:55:56.295Z,98.87
2017-02-17T00:56:36.909Z,98.87
2017-02-17T00:57:17.489Z,98.92
2017-02-17T00:57:58.112Z,98.92
2017-02-17T00:58:38.736Z,98.96
2017-02-17T00:59:19.307Z,98.82
2017-02-17T00:59:59.898Z,98.96
2017-02-17T01:00:40.508Z,98.87
2017-02-17T01:01:21.111Z,98.68
2017-02-17T01:02:01.707Z,98.92
2017-02-17T01:02:42.344Z,98.73
2017-02-17T01:03:22.903Z,98.82
2017-02-17T01:04:03.529Z,98.63
2017-02-17T01:04:44.157Z,98.87
2017-02-17T01:05:24.717Z,98.92
2017-02-17T01:06:05.343Z,98.96
2017-02-17T01:06:45.952Z,98.87
2017-02-17T01:07:26.559Z,98.92
2017-02-17T01:08:07.291Z,98.68
2017-02-17T01:08:47.945Z,98.92
2017-02-17T01:09:28.538Z,98.87
2017-02-17T01:10:09.170Z,98.68
2017-02-17T01:10:49.751Z,98.58
2017-02-17T01:11:30.558Z,98.92
2017-02-17T01:12:11.176Z,99.06
2017-02-17T01:12:51.810Z,98.87
2017-02-17T01:13:32.389Z,98.68
2017-02-17T01:14:13.006Z,98.39
2017-02-17T01:14:53.649Z,99.06
2017-02-17T01:15:34.254Z,99.25
2017-02-17T01:16:14.860Z,99.15
2017-02-17T01:16:55.457Z,99.15
2017-02-17T01:17:36.010Z,99.25
2017-02-17T01:18:16.598Z,99.25
2017-02-17T01:18:57.174Z,99.25
2017-02-17T01:19:37.748Z,99.34
2017-02-17T01:20:18.334Z,99.25
2017-02-17T01:20:58.966Z,99.25
2017-02-17T01:21:39.575Z,99.15
2017-02-17T01:22:20.145Z,99.06
2017-02-17T01:23:01.360Z,98.96
2017-02-17T01:23:41.988Z,99.15
2017-02-17T01:24:22.612Z,99.44
2017-02-17T01:25:17.308Z,99.15
2017-02-17T01:25:57.923Z,98.87
2017-02-17T01:26:38.518Z,99.34
2017-02-17T01:27:19.123Z,98.96
2017-02-17T01:27:59.736Z,99.99
2017-02-17T01:28:40.354Z,99.34
2017-02-17T01:29:20.926Z,99.15
2017-02-17T01:30:01.579Z,99.15
2017-02-17T01:30:43.004Z,99.25
2017-02-17T01:31:23.602Z,99.25
2017-02-17T01:32:04.180Z,98.96
2017-02-17T01:32:44.823Z,99.82
2017-02-17T01:33:25.443Z,99.91
2017-02-17T01:34:06.047Z,99.82
2017-02-17T01:34:46.655Z,99.63
2017-02-17T01:35:27.242Z,99.63
2017-02-17T01:36:07.854Z,99.63
2017-02-17T01:36:48.445Z,99.91
2017-02-17T01:37:29.031Z,99.63
2017-02-17T01:38:09.726Z,99.63
2017-02-17T01:38:50.350Z,99.72
2017-02-17T01:39:30.985Z,99.82
2017-02-17T01:40:11.593Z,99.82
2017-02-17T01:40:52.182Z,99.99
2017-02-17T01:41:32.780Z,99.82
2017-02-17T01:42:13.431Z,99.99
2017-02-17T01:42:54.084Z,99.82
2017-02-17T01:43:34.683Z,99.72
2017-02-17T01:44:15.318Z,99.53
2017-02-17T01:44:55.940Z,99.91
2017-02-17T01:45:36.578Z,99.82
2017-02-17T01:46:17.181Z,99.63
2017-02-17T01:46:57.783Z,99.72
2017-02-17T01:47:38.369Z,99.53
2017-02-17T01:48:19.007Z,99.63
2017-02-17T01:48:59.581Z,99.91
2017-02-17T01:49:40.196Z,99.82
2017-02-17T01:50:20.799Z,99.82
2017-02-17T01:51:01.470Z,99.82
2017-02-17T01:51:42.098Z,99.34
2017-02-17T01:52:22.743Z,99.99
2017-02-17T01:53:03.382Z,99.99
2017-02-17T01:53:44.016Z,99.91
2017-02-17T01:54:24.596Z,99.99
2017-02-17T01:55:05.224Z,99.99
2017-02-17T01:55:45.855Z,99.99
2017-02-17T01:56:26.510Z,99.91
2017-02-17T01:57:07.127Z,99.99
2017-02-17T01:57:47.723Z,99.91
2017-02-17T01:58:28.891Z,99.99
2017-02-17T01:59:09.498Z,99.99
2017-02-17T01:59:50.121Z,99.91
2017-02-17T02:00:30.753Z,99.99
2017-02-17T02:01:11.399Z,99.99
2017-02-17T02:01:51.999Z,99.91
2017-02-17T02:02:32.568Z,99.82
2017-02-17T02:03:13.191Z,99.91
2017-02-17T02:03:53.822Z,99.99
2017-02-17T02:04:34.387Z,99.91
2017-02-17T02:05:15.018Z,99.99
2017-02-17T02:05:55.622Z,99.99
2017-02-17T02:06:36.222Z,99.91
2017-02-17T02:07:16.785Z,99.91
2017-02-17T02:07:57.373Z,99.99
2017-02-17T02:08:37.974Z,99.99
2017-02-17T02:09:18.590Z,99.99
2017-02-17T02:09:59.217Z,99.99
2017-02-17T02:10:39.837Z,99.99
2017-02-17T02:11:20.451Z,99.99
2017-02-17T02:12:01.050Z,99.82
2017-02-17T02:12:41.630Z,99.87
2017-02-17T02:13:22.271Z,99.68
2017-02-17T02:14:02.854Z,99.87
2017-02-17T02:14:43.434Z,99.87
2017-02-17T02:15:24.103Z,99.96
2017-02-17T02:16:04.698Z,99.87
2017-02-17T02:16:45.421Z,99.87
2017-02-17T02:17:25.992Z,99.96
2017-02-17T02:18:06.607Z,99.96
2017-02-17T02:18:47.140Z,99.87
2017-02-17T02:19:27.751Z,99.87
2017-02-17T02:20:08.376Z,99.77
2017-02-17T02:20:48.957Z,99.87
2017-02-17T02:21:29.704Z,99.87
2017-02-17T02:22:10.306Z,99.96
2017-02-17T02:22:50.924Z,99.99
2017-02-17T02:23:31.565Z,99.99
2017-02-17T02:24:12.171Z,99.87
2017-02-17T02:24:52.751Z,99.99
2017-02-17T02:25:33.338Z,99.87
2017-02-17T02:26:13.929Z,99.99
2017-02-17T02:26:54.534Z,99.99
2017-02-17T02:27:35.078Z,99.99
2017-02-17T02:28:15.714Z,99.99
2017-02-17T02:28:56.285Z,99.99
2017-02-17T02:29:36.925Z,99.99
2017-02-17T02:30:17.531Z,99.99
2017-02-17T02:30:58.127Z,99.99
2017-02-17T02:31:38.740Z,99.99
2017-02-17T02:32:19.433Z,99.99
2017-02-17T02:33:00.024Z,99.99
2017-02-17T02:33:40.653Z,99.99
2017-02-17T02:34:21.295Z,99.99
2017-02-17T02:35:01.922Z,99.99
2017-02-17T02:35:42.552Z,99.99
2017-02-17T02:36:23.229Z,99.99
2017-02-17T02:37:03.839Z,99.99
2017-02-17T02:37:44.423Z,99.99
2017-02-17T02:38:25.021Z,99.99
2017-02-17T02:39:05.712Z,99.99
2017-02-17T02:39:46.321Z,99.99
2017-02-17T02:40:26.952Z,99.99
2017-02-17T02:41:07.506Z,99.99
2017-02-17T02:41:48.129Z,99.99
2017-02-17T02:42:28.731Z,99.99
2017-02-17T02:43:09.348Z,99.99
2017-02-17T02:43:49.942Z,99.99
2017-02-17T02:44:30.525Z,99.99
2017-02-17T02:45:11.139Z,99.99
2017-02-17T02:45:51.726Z,99.99
2017-02-17T02:46:32.339Z,99.99
2017-02-17T02:47:12.947Z,99.99
2017-02-17T02:47:53.584Z,99.99
2017-02-17T02:48:34.239Z,99.99
2017-02-17T02:49:14.907Z,99.99
2017-02-17T02:49:55.517Z,99.99
2017-02-17T02:50:36.119Z,99.99
2017-02-17T02:51:16.744Z,99.99
2017-02-17T02:51:57.396Z,99.99
2017-02-17T02:52:38.048Z,99.99
2017-02-17T02:53:18.630Z,99.99
2017-02-17T02:53:59.203Z,99.99
2017-02-17T02:54:39.829Z,99.99
2017-02-17T02:55:20.455Z,99.99
2017-02-17T02:56:01.038Z,99.99
2017-02-17T02:56:41.615Z,99.99
2017-02-17T02:57:22.205Z,99.99
2017-02-17T02:58:02.816Z,99.99
2017-02-17T02:58:43.406Z,99.99
2017-02-17T02:59:24.000Z,99.99
2017-02-17T03:00:04.596Z,99.99
2017-02-17T03:00:45.207Z,99.99
2017-02-17T03:01:25.822Z,99.99
2017-02-17T03:02:06.429Z,99.99
2017-02-17T03:02:47.048Z,99.99
2017-02-17T03:03:27.693Z,99.99
2017-02-17T03:04:08.281Z,99.99
2017-02-17T03:04:48.874Z,99.99
2017-02-17T03:05:29.485Z,99.99
2017-02-17T03:06:10.082Z,99.99
2017-02-17T03:06:50.735Z,99.99
2017-02-17T03:07:31.337Z,99.99
2017-02-17T03:08:11.964Z,99.99
2017-02-17T03:08:52.608Z,99.99
2017-02-17T03:09:33.236Z,99.99
2017-02-17T03:10:13.848Z,99.99
2017-02-17T03:10:54.496Z,99.99
2017-02-17T03:11:35.140Z,99.99
2017-02-17T03:12:15.725Z,99.99
2017-02-17T03:12:56.288Z,99.99
2017-02-17T03:13:36.891Z,99.99
2017-02-17T03:14:17.469Z,99.99
2017-02-17T03:14:58.042Z,99.99
2017-02-17T03:15:38.657Z,99.99
2017-02-17T03:16:19.255Z,99.99
2017-02-17T03:16:59.874Z,99.99
2017-02-17T03:17:40.444Z,99.99
2017-02-17T03:18:21.039Z,99.99
2017-02-17T03:19:01.684Z,99.99
2017-02-17T03:19:42.269Z,99.99
2017-02-17T03:20:22.898Z,99.99
2017-02-17T03:21:03.523Z,99.99
2017-02-17T03:21:44.147Z,99.99
2017-02-17T03:22:24.749Z,99.99
2017-02-17T03:23:05.383Z,99.99
2017-02-17T03:23:45.967Z,99.99
2017-02-17T03:24:26.629Z,99.99
2017-02-17T03:25:07.313Z,99.99
2017-02-17T03:25:47.948Z,99.99
2017-02-17T03:26:28.539Z,99.99
2017-02-17T03:27:09.125Z,99.99
2017-02-17T03:27:49.733Z,99.99
2017-02-17T03:28:30.328Z,99.99
2017-02-17T03:29:10.923Z,99.99
2017-02-17T03:29:51.500Z,99.99
2017-02-17T03:30:32.117Z,99.99
2017-02-17T03:31:12.726Z,99.99
2017-02-17T03:31:53.374Z,99.99
2017-02-17T03:32:33.979Z,99.99
2017-02-17T03:33:14.538Z,99.99
2017-02-17T03:33:55.145Z,99.99
2017-02-17T03:34:35.758Z,99.99
2017-02-17T03:35:16.393Z,99.99
2017-02-17T03:35:56.951Z,99.99
2017-02-17T03:36:37.567Z,99.99
2017-02-17T03:37:18.218Z,99.99
2017-02-17T03:37:59.699Z,99.99
2017-02-17T03:38:40.365Z,99.99
2017-02-17T03:39:20.951Z,99.99
2017-02-17T03:40:01.555Z,99.99
2017-02-17T03:40:42.165Z,99.99
2017-02-17T03:41:22.779Z,99.99
2017-02-17T03:42:03.398Z,99.99
2017-02-17T03:42:43.989Z,99.99
2017-02-17T03:43:24.611Z,99.99
2017-02-17T03:44:05.199Z,99.99
2017-02-17T03:44:45.794Z,99.99
2017-02-17T03:45:26.464Z,99.99
2017-02-17T03:46:07.063Z,99.99
2017-02-17T03:46:47.688Z,99.99
2017-02-17T03:47:28.314Z,99.99
2017-02-17T03:48:08.897Z,99.99
2017-02-17T03:48:49.536Z,99.99
2017-02-17T03:49:30.153Z,99.99
2017-02-17T03:50:10.775Z,99.99
2017-02-17T03:50:51.400Z,99.99
2017-02-17T03:51:32.016Z,99.99
2017-02-17T03:52:12.742Z,99.99
2017-02-17T03:52:53.359Z,99.99
2017-02-17T03:53:33.938Z,99.99
2017-02-17T03:54:14.589Z,99.99
2017-02-17T03:54:55.213Z,99.99
2017-02-17T03:55:35.823Z,99.99
2017-02-17T03:56:16.452Z,99.99
2017-02-17T03:56:57.086Z,99.99
2017-02-17T03:57:37.747Z,99.99
2017-02-17T03:58:18.372Z,99.99
2017-02-17T03:58:58.946Z,99.99
2017-02-17T03:59:39.576Z,99.99
2017-02-17T04:00:20.190Z,99.99
2017-02-17T04:01:00.783Z,99.99
2017-02-17T04:01:41.391Z,99.99
2017-02-17T04:02:21.988Z,99.99
2017-02-17T04:03:02.587Z,99.99
2017-02-17T04:03:43.176Z,99.99
2017-02-17T04:04:23.772Z,99.99
2017-02-17T04:05:04.367Z,99.99
2017-02-17T04:05:44.969Z,99.99
2017-02-17T04:06:25.575Z,99.99
2017-02-17T04:07:06.201Z,99.99
2017-02-17T04:07:46.806Z,99.99
2017-02-17T04:08:27.399Z,99.99
2017-02-17T04:09:08.014Z,99.99
2017-02-17T04:09:48.692Z,99.99
2017-02-17T04:10:29.295Z,99.99
2017-02-17T04:11:09.938Z,99.99
2017-02-17T04:11:50.569Z,99.99
2017-02-17T04:12:31.174Z,99.99
2017-02-17T04:13:11.851Z,99.99
2017-02-17T04:13:52.446Z,99.99
2017-02-17T04:14:33.074Z,99.99
2017-02-17T04:15:13.684Z,99.99
2017-02-17T04:15:54.300Z,99.99
2017-02-17T04:16:34.892Z,99.99
2017-02-17T04:17:15.593Z,99.99
2017-02-17T04:17:56.186Z,99.99
2017-02-17T04:18:36.812Z,99.99
2017-02-17T04:19:17.413Z,99.99
2017-02-17T04:19:58.015Z,99.99
2017-02-17T04:20:38.643Z,99.99
2017-02-17T04:21:19.299Z,99.99
2017-02-17T04:21:59.868Z,99.99
2017-02-17T04:22:40.491Z,99.99
2017-02-17T04:23:21.092Z,99.99
2017-02-17T04:24:02.291Z,99.99
2017-02-17T04:24:42.841Z,99.99
2017-02-17T04:25:23.484Z,99.99
2017-02-17T04:26:04.129Z,99.99
2017-02-17T04:26:44.677Z,99.99
2017-02-17T04:27:25.258Z,99.99
2017-02-17T04:28:05.858Z,99.99
2017-02-17T04:28:46.437Z,99.99
2017-02-17T04:29:27.037Z,99.99
2017-02-17T04:30:07.636Z,99.99
2017-02-17T04:30:48.211Z,99.99
2017-02-17T04:31:28.842Z,99.99
2017-02-17T04:32:09.409Z,99.99
2017-02-17T04:32:49.997Z,99.99
2017-02-17T04:33:30.564Z,99.99
2017-02-17T04:34:11.162Z,99.99
2017-02-17T04:34:51.810Z,99.99
2017-02-17T04:35:32.411Z,99.99
2017-02-17T04:36:12.970Z,99.99
2017-02-17T04:36:53.548Z,99.99
2017-02-17T04:37:34.204Z,99.99
2017-02-17T04:38:14.795Z,99.99
2017-02-17T04:38:55.374Z,99.99
2017-02-17T04:39:35.970Z,99.99
2017-02-17T04:40:16.566Z,99.99
2017-02-17T04:40:57.183Z,99.99
2017-02-17T04:41:37.853Z,99.99
2017-02-17T04:42:18.437Z,99.99
2017-02-17T04:42:59.051Z,99.99
2017-02-17T04:43:39.689Z,99.99
2017-02-17T04:44:20.390Z,99.99
2017-02-17T04:45:01.024Z,99.99
2017-02-17T04:45:41.642Z,99.99
2017-02-17T04:46:22.244Z,99.99
2017-02-17T04:47:02.798Z,99.99
2017-02-17T04:47:43.401Z,99.99
2017-02-17T04:48:24.017Z,99.99
2017-02-17T04:49:04.633Z,99.99
2017-02-17T04:49:45.250Z,99.99
2017-02-17T04:50:25.873Z,99.99
2017-02-17T04:51:06.465Z,99.99
2017-02-17T04:51:47.050Z,99.99
2017-02-17T04:52:27.695Z,99.99
2017-02-17T04:53:08.267Z,99.99
2017-02-17T04:53:48.892Z,99.99
2017-02-17T04:54:29.463Z,99.99
2017-02-17T04:55:10.092Z,99.99
2017-02-17T04:55:50.706Z,99.99
2017-02-17T04:56:31.297Z,99.99
2017-02-17T04:57:11.878Z,99.99
2017-02-17T04:57:52.477Z,99.99
2017-02-17T04:58:33.102Z,99.99
2017-02-17T04:59:13.750Z,99.99
2017-02-17T04:59:54.378Z,99.99
2017-02-17T05:00:34.989Z,99.99
2017-02-17T05:01:15.584Z,99.99
2017-02-17T05:01:56.183Z,99.99
2017-02-17T05:02:36.809Z,99.99
2017-02-17T05:03:17.395Z,99.99
2017-02-17T05:03:57.977Z,99.99
2017-02-17T05:04:38.552Z,99.99
2017-02-17T05:05:19.173Z,99.99
2017-02-17T05:05:59.789Z,99.99
2017-02-17T05:06:40.411Z,99.99
2017-02-17T05:07:21.034Z,99.99
2017-02-17T05:08:01.640Z,99.99
2017-02-17T05:08:42.249Z,99.99
2017-02-17T05:09:22.873Z,99.99
2017-02-17T05:10:03.476Z,99.99
2017-02-17T05:10:44.063Z,99.99
2017-02-17T05:11:24.664Z,99.99
2017-02-17T05:12:05.259Z,99.99
2017-02-17T05:12:45.903Z,99.99
2017-02-17T05:13:26.518Z,99.99
2017-02-17T05:14:07.123Z,99.99
2017-02-17T05:14:47.697Z,99.99
2017-02-17T05:15:28.315Z,99.99
2017-02-17T05:16:08.929Z,99.99
2017-02-17T05:16:49.532Z,99.99
2017-02-17T05:17:30.140Z,99.99
2017-02-17T05:18:10.729Z,99.99
2017-02-17T05:18:51.305Z,99.99
2017-02-17T05:19:31.901Z,99.99
2017-02-17T05:20:12.478Z,99.99
2017-02-17T05:20:53.110Z,99.99
2017-02-17T05:21:33.695Z,99.99
2017-02-17T05:22:14.333Z,99.99
2017-02-17T05:22:54.936Z,99.99
2017-02-17T05:23:35.496Z,99.99
2017-02-17T05:24:16.096Z,99.99
2017-02-17T05:24:56.703Z,99.99
2017-02-17T05:25:37.292Z,99.99
2017-02-17T05:26:17.899Z,99.99
2017-02-17T05:26:58.499Z,99.99
2017-02-17T05:27:39.141Z,99.99
2017-02-17T05:28:19.760Z,99.99
2017-02-17T05:29:00.345Z,99.99
2017-02-17T05:29:40.998Z,99.99
2017-02-17T05:30:21.612Z,99.99
2017-02-17T05:31:02.273Z,99.63
2017-02-17T05:31:42.861Z,99.54
2017-02-17T05:32:23.445Z,99.99
2017-02-17T05:33:04.018Z,99.91
2017-02-17T05:33:44.594Z,99.99
2017-02-17T05:34:25.208Z,99.99
2017-02-17T05:35:05.792Z,99.99
2017-02-17T05:35:46.402Z,99.99
2017-02-17T05:36:26.978Z,99.91
2017-02-17T05:37:07.584Z,99.91
2017-02-17T05:37:48.190Z,99.99
2017-02-17T05:38:28.778Z,99.99
2017-02-17T05:39:09.493Z,99.82
2017-02-17T05:39:50.107Z,99.99
2017-02-17T05:40:30.686Z,99.99
2017-02-17T05:41:11.291Z,99.99
2017-02-17T05:41:51.916Z,99.99
2017-02-17T05:42:32.583Z,99.99
2017-02-17T05:43:13.185Z,99.99
2017-02-17T05:43:53.752Z,99.99
2017-02-17T05:44:34.380Z,99.99
2017-02-17T05:45:14.997Z,99.99
2017-02-17T05:45:55.613Z,99.91
2017-02-17T05:46:36.215Z,99.82
2017-02-17T05:47:16.858Z,99.99
2017-02-17T05:47:57.467Z,99.99
2017-02-17T05:48:38.052Z,99.99
2017-02-17T05:49:18.659Z,99.99
2017-02-17T05:49:59.261Z,99.99
2017-02-17T05:50:39.947Z,99.99
2017-02-17T05:51:20.544Z,99.99
2017-02-17T05:52:01.105Z,99.99
2017-02-17T05:52:41.704Z,99.99
2017-02-17T05:53:22.326Z,99.91
2017-02-17T05:54:02.942Z,99.63
2017-02-17T05:54:43.574Z,99.91
2017-02-17T05:55:24.200Z,99.91
2017-02-17T05:56:04.785Z,99.91
2017-02-17T05:56:45.409Z,99.91
2017-02-17T05:57:26.004Z,99.82
2017-02-17T05:58:06.578Z,99.91
2017-02-17T05:58:47.168Z,99.91
2017-02-17T05:59:27.787Z,99.73
2017-02-17T06:00:08.402Z,99.99
2017-02-17T06:00:49.059Z,99.73
2017-02-17T06:01:29.636Z,99.99
2017-02-17T06:02:10.262Z,99.63
2017-02-17T06:02:50.975Z,99.63
2017-02-17T06:03:31.561Z,99.91
2017-02-17T06:04:12.155Z,99.73
2017-02-17T06:04:52.763Z,99.73
2017-02-17T06:05:33.380Z,99.99
2017-02-17T06:06:14.015Z,99.91
2017-02-17T06:06:54.685Z,99.82
2017-02-17T06:07:35.324Z,99.91
2017-02-17T06:08:15.930Z,99.99
2017-02-17T06:08:56.526Z,99.91
2017-02-17T06:09:37.173Z,99.91
2017-02-17T06:10:17.774Z,99.91
2017-02-17T06:10:58.372Z,99.91
2017-02-17T06:11:39.068Z,99.91
2017-02-17T06:12:19.672Z,99.82
2017-02-17T06:13:00.256Z,99.91
2017-02-17T06:13:40.868Z,99.91
2017-02-17T06:14:21.473Z,99.82
2017-02-17T06:15:02.081Z,99.82
2017-02-17T06:15:42.688Z,99.82
2017-02-17T06:16:23.258Z,99.82
2017-02-17T06:17:03.842Z,99.91
2017-02-17T06:17:44.439Z,99.99
2017-02-17T06:18:25.048Z,99.91
2017-02-17T06:19:05.646Z,99.91
2017-02-17T06:19:46.262Z,99.91
2017-02-17T06:20:26.926Z,99.91
2017-02-17T06:22:45.152Z,99.73
2017-02-17T06:23:25.732Z,99.73
2017-02-17T06:24:06.306Z,99.82
2017-02-17T06:24:46.924Z,99.99
2017-02-17T06:25:27.551Z,99.82
2017-02-17T06:26:08.145Z,99.82
2017-02-17T06:26:48.750Z,99.63
2017-02-17T06:27:29.369Z,99.73
2017-02-17T06:28:09.963Z,99.73
2017-02-17T06:28:50.523Z,99.82
2017-02-17T06:29:31.079Z,99.73
2017-02-17T06:30:11.631Z,99.63
2017-02-17T06:30:52.204Z,99.35
2017-02-17T06:31:32.876Z,99.91
2017-02-17T06:32:13.456Z,99.44
2017-02-17T06:32:54.062Z,99.54
2017-02-17T06:33:34.670Z,99.99
2017-02-17T06:34:15.305Z,99.99
2017-02-17T06:34:55.891Z,99.99
2017-02-17T06:35:37.467Z,99.91
2017-02-17T06:36:18.094Z,99.99
2017-02-17T06:36:58.720Z,99.99
2017-02-17T06:37:39.352Z,99.54
2017-02-17T06:38:20.016Z,99.99
2017-02-17T06:39:00.670Z,99.99
2017-02-17T06:39:41.260Z,99.99
2017-02-17T06:40:21.864Z,99.99
2017-02-17T06:41:02.466Z,99.99
2017-02-17T06:41:43.057Z,99.99
2017-02-17T06:42:23.628Z,99.99
2017-02-17T06:43:04.248Z,99.99
2017-02-17T06:43:44.869Z,99.82
2017-02-17T06:44:25.439Z,99.91
2017-02-17T06:45:06.034Z,99.91
2017-02-17T06:45:46.635Z,99.99
2017-02-17T06:46:27.290Z,99.99
2017-02-17T06:47:07.943Z,99.99
2017-02-17T06:47:48.624Z,99.99
2017-02-17T06:48:29.227Z,99.99
2017-02-17T06:49:09.828Z,99.82
2017-02-17T06:49:50.428Z,99.99
2017-02-17T06:50:31.072Z,99.91
2017-02-17T06:51:11.654Z,99.91
2017-02-17T06:51:52.231Z,99.82
2017-02-17T06:52:32.834Z,99.91
2017-02-17T06:53:13.478Z,99.82
2017-02-17T06:53:54.012Z,99.99
2017-02-17T06:54:34.634Z,99.99
2017-02-17T06:55:15.273Z,99.99
2017-02-17T06:55:55.921Z,99.99
2017-02-17T06:56:36.491Z,99.91
2017-02-17T06:57:17.069Z,99.99
2017-02-17T06:57:57.657Z,99.99
2017-02-17T06:58:38.315Z,99.91
2017-02-17T06:59:18.940Z,99.99
2017-02-17T06:59:59.567Z,99.99
2017-02-17T07:00:40.195Z,99.99
2017-02-17T07:01:20.784Z,99.54
2017-02-17T07:02:01.388Z,99.91
2017-02-17T07:02:42.001Z,99.99
2017-02-17T07:03:22.602Z,99.99
2017-02-17T07:04:03.214Z,99.99
2017-02-17T07:04:43.832Z,99.63
2017-02-17T07:05:24.429Z,99.54
2017-02-17T07:06:05.065Z,99.99
2017-02-17T07:06:45.651Z,99.99
2017-02-17T07:07:26.252Z,99.99
2017-02-17T07:08:06.852Z,99.99
2017-02-17T07:08:47.471Z,99.99
2017-02-17T07:09:28.081Z,99.99
2017-02-17T07:10:08.703Z,99.99
2017-02-17T07:10:49.290Z,99.99
2017-02-17T07:11:29.888Z,99.99
2017-02-17T07:12:10.514Z,99.99
2017-02-17T07:12:51.114Z,99.99
2017-02-17T07:13:31.737Z,99.99
2017-02-17T07:14:12.320Z,99.99
2017-02-17T07:14:52.895Z,99.99
2017-02-17T07:15:33.549Z,99.99
2017-02-17T07:16:14.153Z,99.99
2017-02-17T07:16:54.745Z,99.99
2017-02-17T07:17:35.352Z,99.99
2017-02-17T07:18:15.953Z,99.99
2017-02-17T07:18:56.584Z,99.99
2017-02-17T07:19:37.237Z,99.99
2017-02-17T07:20:17.841Z,99.99
2017-02-17T07:20:58.434Z,99.99
2017-02-17T07:21:39.052Z,99.99
2017-02-17T07:22:19.650Z,99.99
2017-02-17T07:23:00.255Z,99.99
2017-02-17T07:23:40.840Z,99.99
2017-02-17T07:24:21.402Z,99.99
2017-02-17T07:25:01.991Z,99.99
2017-02-17T07:25:42.552Z,99.99
2017-02-17T07:26:23.147Z,99.99
2017-02-17T07:27:03.784Z,99.99
2017-02-17T07:27:44.379Z,99.99
2017-02-17T07:28:25.101Z,99.99
2017-02-17T07:29:05.693Z,99.99
2017-02-17T07:29:46.317Z,99.99
2017-02-17T07:30:26.950Z,99.99
2017-02-17T07:31:07.521Z,99.99
2017-02-17T07:31:48.165Z,99.99
2017-02-17T07:32:28.763Z,99.99
2017-02-17T07:33:09.359Z,99.99
2017-02-17T07:33:49.979Z,99.99
2017-02-17T07:34:30.635Z,99.99
2017-02-17T07:35:11.283Z,99.99
2017-02-17T07:35:51.913Z,99.99
2017-02-17T07:36:32.594Z,99.99
2017-02-17T07:37:13.265Z,99.99
2017-02-17T07:37:53.926Z,99.99
2017-02-17T07:38:34.603Z,99.99
2017-02-17T07:39:15.337Z,99.99
2017-02-17T07:39:55.968Z,99.99
2017-02-17T07:40:36.627Z,99.99
2017-02-17T07:41:17.310Z,99.99
2017-02-17T07:41:57.939Z,99.99
2017-02-17T07:42:38.610Z,99.99
2017-02-17T07:43:19.268Z,99.99
2017-02-17T07:43:59.936Z,99.99
2017-02-17T07:44:40.594Z,99.99
2017-02-17T07:45:21.296Z,99.99
2017-02-17T07:46:01.985Z,99.99
2017-02-17T07:46:42.590Z,99.99
2017-02-17T07:47:23.308Z,99.99
2017-02-17T07:48:03.952Z,99.99
2017-02-17T07:48:44.600Z,99.99
2017-02-17T07:49:25.259Z,99.99
2017-02-17T07:50:05.865Z,99.99
2017-02-17T07:50:46.442Z,99.99
2017-02-17T07:51:27.042Z,99.99
2017-02-17T07:52:07.670Z,99.99
2017-02-17T07:52:48.265Z,99.99
2017-02-17T07:53:28.860Z,99.99
2017-02-17T07:54:09.479Z,99.99
2017-02-17T07:54:50.114Z,99.99
2017-02-17T07:55:30.724Z,99.99
2017-02-17T07:56:11.376Z,99.99
2017-02-17T07:56:52.023Z,99.99
2017-02-17T07:57:32.627Z,99.99
2017-02-17T07:58:13.212Z,99.99
2017-02-17T07:58:53.833Z,99.99
2017-02-17T07:59:34.490Z,99.99
2017-02-17T08:00:15.083Z,99.99
2017-02-17T08:00:55.684Z,99.99
2017-02-17T08:01:36.299Z,99.99
2017-02-17T08:02:16.935Z,99.99
2017-02-17T08:02:57.585Z,99.99
2017-02-17T08:03:38.210Z,99.99
2017-02-17T08:04:18.852Z,99.99
2017-02-17T08:04:59.499Z,99.99
2017-02-17T08:05:40.237Z,99.99
2017-02-17T08:06:20.915Z,99.99
2017-02-17T08:07:01.673Z,99.99
2017-02-17T08:07:42.378Z,99.99
2017-02-17T08:08:22.985Z,99.99
2017-02-17T08:09:03.723Z,99.99
2017-02-17T08:09:44.345Z,99.99
2017-02-17T08:10:25.125Z,99.99
2017-02-17T08:11:05.843Z,99.99
2017-02-17T08:11:46.542Z,99.99
2017-02-17T08:12:27.322Z,99.99
2017-02-17T08:13:08.064Z,99.99
2017-02-17T08:13:48.750Z,99.99
2017-02-17T08:14:29.432Z,99.99
2017-02-17T08:15:10.075Z,99.99
2017-02-17T08:15:50.749Z,99.99
2017-02-17T08:16:31.486Z,99.99
2017-02-17T08:17:12.219Z,99.99
2017-02-17T08:17:52.906Z,99.99
2017-02-17T08:18:33.639Z,99.99
2017-02-17T08:19:14.446Z,99.99
2017-02-17T08:19:55.040Z,99.99
2017-02-17T08:20:35.621Z,99.99
2017-02-17T08:21:16.217Z,99.99
2017-02-17T08:21:56.795Z,99.99
2017-02-17T08:22:37.416Z,99.99
2017-02-17T08:23:18.098Z,99.99
2017-02-17T08:23:58.875Z,99.99
2017-02-17T08:24:39.500Z,99.99
2017-02-17T08:25:20.143Z,99.99
2017-02-17T08:26:00.726Z,99.99
2017-02-17T08:26:41.351Z,99.99
2017-02-17T08:27:21.943Z,99.99
2017-02-17T08:28:02.596Z,99.99
2017-02-17T08:28:43.195Z,99.99
2017-02-17T08:29:23.800Z,99.99
2017-02-17T08:30:04.408Z,99.99
2017-02-17T08:30:45.102Z,99.99
2017-02-17T08:31:25.694Z,99.99
2017-02-17T08:32:06.310Z,99.99
2017-02-17T08:32:46.901Z,99.99
2017-02-17T08:33:27.515Z,99.99
2017-02-17T08:34:09.134Z,99.99
2017-02-17T08:34:49.776Z,99.99
2017-02-17T08:35:30.411Z,99.99
2017-02-17T08:36:11.031Z,99.99
2017-02-17T08:36:51.629Z,99.99
2017-02-17T08:37:32.229Z,99.99
2017-02-17T08:38:12.843Z,99.99
2017-02-17T08:38:53.465Z,99.99
2017-02-17T08:39:34.129Z,99.99
2017-02-17T08:40:14.774Z,99.99
2017-02-17T08:40:55.420Z,99.99
2017-02-17T08:41:36.047Z,99.99
2017-02-17T08:42:16.675Z,99.99
2017-02-17T08:42:57.297Z,99.99
2017-02-17T08:43:37.866Z,99.99
2017-02-17T08:44:18.541Z,99.99
2017-02-17T08:44:59.115Z,99.99